createdAt,value
2022-09-04T00:02:27.593Z,55.52
2022-09-04T00:05:27.428Z,55.82
2022-09-04T00:08:17.466Z,55.81
2022-09-04T00:11:31.535Z,56.05
2022-09-04T00:14:18.390Z,56.23
2022-09-04T00:17:10.873Z,56.51
2022-09-04T00:19:59.426Z,56.71
2022-09-04T00:22:54.881Z,56.73
2022-09-04T00:25:37.781Z,56.70
2022-09-04T00:28:24.123Z,56.71
2022-09-04T00:31:09.225Z,56.49
2022-09-04T00:34:00.604Z,56.70
2022-09-04T00:36:32.500Z,56.52
2022-09-04T00:39:14.102Z,56.98
2022-09-04T00:41:57.861Z,56.83
2022-09-04T00:44:56.270Z,56.92
2022-09-04T00:47:55.912Z,57.17
2022-09-04T00:50:46.468Z,57.17
2022-09-04T00:53:42.708Z,57.06
2022-09-04T00:56:28.744Z,57.08
2022-09-04T00:59:23.045Z,57.52
2022-09-04T01:02:04.471Z,57.60
2022-09-04T01:04:45.908Z,57.56
2022-09-04T01:07:35.285Z,57.73
2022-09-04T01:10:19.561Z,58.29
2022-09-04T01:13:06.881Z,58.38
2022-09-04T01:15:46.038Z,58.41
2022-09-04T01:18:46.917Z,58.37
2022-09-04T01:21:43.429Z,58.25
2022-09-04T01:24:58.897Z,58.10
2022-09-04T01:27:45.986Z,58.28
2022-09-04T01:30:22.337Z,58.64
2022-09-04T01:33:31.539Z,58.67
2022-09-04T01:36:22.867Z,58.46
2022-09-04T01:38:58.546Z,58.14
2022-09-04T01:41:37.803Z,58.42
2022-09-04T01:44:11.720Z,58.19
2022-09-04T01:46:55.101Z,58.37
2022-09-04T01:49:53.958Z,58.29
2022-09-04T01:52:47.952Z,58.50
2022-09-04T01:55:44.894Z,58.62
2022-09-04T01:58:38.665Z,58.54
2022-09-04T02:01:29.460Z,58.86
2022-09-04T02:04:18.259Z,58.79
2022-09-04T02:07:10.854Z,59.26
2022-09-04T02:10:00.613Z,59.18
2022-09-04T02:12:50.987Z,59.13
2022-09-04T02:15:43.097Z,59.40
2022-09-04T02:18:24.577Z,59.16
2022-09-04T02:21:05.117Z,59.12
2022-09-04T02:23:44.335Z,59.42
2022-09-04T02:26:54.813Z,59.44
2022-09-04T02:29:40.296Z,59.31
2022-09-04T02:32:21.973Z,59.80
2022-09-04T02:35:34.220Z,59.51
2022-09-04T02:38:32.386Z,59.84
2022-09-04T02:41:28.217Z,59.95
2022-09-04T02:44:25.441Z,60.22
2022-09-04T02:47:05.334Z,60.60
2022-09-04T02:49:58.470Z,60.67
2022-09-04T02:52:59.683Z,61.21
2022-09-04T02:55:58.646Z,61.25
2022-09-04T02:58:30.181Z,61.30
2022-09-04T03:01:27.310Z,61.72
2022-09-04T03:04:19.138Z,61.63
2022-09-04T03:07:08.141Z,61.45
2022-09-04T03:09:51.781Z,61.47
2022-09-04T03:12:42.060Z,61.51
2022-09-04T03:15:27.420Z,61.71
2022-09-04T03:18:28.372Z,62.95
2022-09-04T03:21:03.466Z,62.75
2022-09-04T03:23:48.401Z,62.80
2022-09-04T03:26:34.786Z,63.04
2022-09-04T03:29:15.667Z,63.30
2022-09-04T03:32:16.495Z,63.06
2022-09-04T03:34:57.408Z,63.04
2022-09-04T03:37:38.193Z,63.30
2022-09-04T03:40:43.385Z,64.08
2022-09-04T03:43:22.148Z,64.49
2022-09-04T03:46:11.994Z,64.47
2022-09-04T03:49:07.403Z,65.27
2022-09-04T03:51:51.150Z,65.31
2022-09-04T03:54:32.364Z,65.52
2022-09-04T03:57:35.487Z,65.92
2022-09-04T04:00:10.880Z,65.93
2022-09-04T04:03:21.976Z,66.41
2022-09-04T04:06:15.046Z,66.97
2022-09-04T04:08:56.624Z,66.84
2022-09-04T04:12:04.396Z,66.96
2022-09-04T04:14:42.343Z,66.61
2022-09-04T04:17:51.813Z,67.07
2022-09-04T04:20:41.252Z,67.33
2022-09-04T04:23:37.721Z,67.07
2022-09-04T04:26:24.513Z,66.84
2022-09-04T04:29:08.626Z,67.04
2022-09-04T04:32:10.693Z,66.94
2022-09-04T04:35:04.950Z,68.40
2022-09-04T04:38:00.546Z,68.09
2022-09-04T04:41:03.136Z,69.12
2022-09-04T04:43:55.848Z,68.88
2022-09-04T04:46:46.154Z,69.69
2022-09-04T04:49:20.669Z,69.58
2022-09-04T04:52:07.170Z,70.26
2022-09-04T04:54:41.439Z,69.35
2022-09-04T04:57:27.373Z,69.35
2022-09-04T05:00:32.159Z,68.93
2022-09-04T05:03:15.477Z,69.49
2022-09-04T05:06:16.385Z,68.58
2022-09-04T05:09:03.229Z,67.26
2022-09-04T05:12:03.170Z,66.70
2022-09-04T05:14:47.562Z,66.31
2022-09-04T05:17:40.670Z,65.27
2022-09-04T05:20:28.832Z,64.75
2022-09-04T05:23:17.169Z,64.22
2022-09-04T05:26:12.173Z,63.27
2022-09-04T05:28:59.509Z,62.85
2022-09-04T05:31:38.262Z,61.75
2022-09-04T05:34:36.005Z,60.14
2022-09-04T05:37:17.062Z,59.33
2022-09-04T05:40:07.050Z,57.03
2022-09-04T05:42:50.776Z,56.75
2022-09-04T05:45:49.270Z,56.09
2022-09-04T05:48:34.623Z,54.86
2022-09-04T05:51:18.546Z,53.35
2022-09-04T05:54:08.321Z,52.58
2022-09-04T05:56:50.120Z,51.23
2022-09-04T05:59:44.102Z,50.40
2022-09-04T06:02:49.959Z,49.20
2022-09-04T06:05:44.348Z,48.05
2022-09-04T06:08:29.004Z,46.27
2022-09-04T06:11:09.393Z,45.51
2022-09-04T06:13:46.705Z,44.18
2022-09-04T06:16:27.468Z,43.91
2022-09-04T06:19:27.743Z,43.43
2022-09-04T06:22:05.313Z,42.98
2022-09-04T06:25:05.253Z,42.44
2022-09-04T06:28:20.047Z,42.42
2022-09-04T06:31:19.893Z,41.88
2022-09-04T06:34:06.862Z,42.43
2022-09-04T06:36:47.478Z,41.89
2022-09-04T06:39:42.468Z,40.94
2022-09-04T06:42:54.219Z,40.12
2022-09-04T06:45:42.655Z,38.45
2022-09-04T06:48:32.595Z,37.63
2022-09-04T06:51:08.132Z,38.48
2022-09-04T06:53:48.054Z,38.01
2022-09-04T06:56:22.435Z,36.99
2022-09-04T06:59:21.561Z,37.04
2022-09-04T07:02:04.093Z,36.35
2022-09-04T07:04:54.677Z,35.93
2022-09-04T07:07:58.436Z,34.40
2022-09-04T07:10:49.302Z,34.35
2022-09-04T07:13:44.189Z,33.86
2022-09-04T07:16:40.503Z,33.62
2022-09-04T07:19:56.337Z,33.28
2022-09-04T07:22:37.051Z,31.92
2022-09-04T07:25:29.841Z,32.69
2022-09-04T07:28:23.767Z,32.15
2022-09-04T07:31:08.218Z,30.92
2022-09-04T07:33:56.727Z,30.96
2022-09-04T07:36:40.085Z,30.77
2022-09-04T07:39:37.585Z,31.40
2022-09-04T07:42:32.726Z,31.18
2022-09-04T07:45:14.474Z,31.23
2022-09-04T07:47:57.334Z,31.26
2022-09-04T07:50:35.671Z,32.05
2022-09-04T07:53:25.505Z,31.60
2022-09-04T07:56:07.692Z,31.84
2022-09-04T07:58:56.731Z,31.54
2022-09-04T08:01:40.230Z,31.23
2022-09-04T08:04:15.129Z,31.09
2022-09-04T08:06:53.429Z,30.37
2022-09-04T08:10:06.621Z,30.33
2022-09-04T08:13:02.452Z,29.72
2022-09-04T08:15:49.912Z,29.68
2022-09-04T08:19:01.532Z,30.05
2022-09-04T08:21:40.131Z,30.19
2022-09-04T08:24:50.223Z,29.40
2022-09-04T08:27:49.942Z,29.15
2022-09-04T08:30:22.104Z,29.56
2022-09-04T08:33:20.609Z,28.42
2022-09-04T08:36:02.133Z,29.18
2022-09-04T08:38:36.719Z,29.14
2022-09-04T08:41:36.112Z,28.88
2022-09-04T08:44:32.605Z,29.12
2022-09-04T08:47:36.533Z,29.35
2022-09-04T08:50:38.468Z,31.48
2022-09-04T08:53:20.368Z,31.14
2022-09-04T08:56:11.125Z,30.52
2022-09-04T08:59:26.475Z,30.47
2022-09-04T09:02:06.975Z,29.17
2022-09-04T09:05:10.176Z,28.26
2022-09-04T09:07:52.178Z,28.28
2022-09-04T09:10:38.672Z,28.13
2022-09-04T09:13:16.194Z,27.79
2022-09-04T09:16:12.489Z,27.81
2022-09-04T09:19:10.145Z,27.68
2022-09-04T09:22:12.485Z,27.77
2022-09-04T09:25:22.850Z,27.99
2022-09-04T09:28:29.228Z,28.91
2022-09-04T09:31:16.879Z,29.82
2022-09-04T09:34:33.811Z,29.67
2022-09-04T09:37:28.519Z,30.07
2022-09-04T09:40:32.461Z,31.16
2022-09-04T09:43:17.634Z,31.30
2022-09-04T09:46:24.760Z,30.51
2022-09-04T09:49:05.389Z,30.13
2022-09-04T09:52:07.005Z,28.79
2022-09-04T09:55:09.534Z,29.02
2022-09-04T09:58:02.076Z,29.10
2022-09-04T10:01:00.157Z,29.25
2022-09-04T10:04:13.008Z,29.34
2022-09-04T10:07:20.024Z,29.53
2022-09-04T10:10:24.859Z,28.85
2022-09-04T10:13:14.921Z,28.31
2022-09-04T10:16:13.774Z,29.07
2022-09-04T10:19:18.281Z,29.37
2022-09-04T10:22:24.382Z,29.29
2022-09-04T10:25:09.678Z,29.17
2022-09-04T10:27:53.246Z,29.10
2022-09-04T10:30:37.386Z,29.38
2022-09-04T10:33:31.605Z,29.06
2022-09-04T10:36:59.502Z,29.25
2022-09-04T10:40:25.030Z,29.25
2022-09-04T10:43:26.809Z,28.06
2022-09-04T10:46:13.748Z,28.55
2022-09-04T10:49:31.713Z,28.58
2022-09-04T10:52:30.293Z,28.21
2022-09-04T10:55:20.249Z,28.84
2022-09-04T10:58:08.758Z,29.85
2022-09-04T11:01:05.425Z,29.87
2022-09-04T11:03:44.316Z,29.89
2022-09-04T11:06:18.806Z,29.11
2022-09-04T11:08:53.160Z,29.44
2022-09-04T11:11:43.528Z,29.23
2022-09-04T11:14:43.342Z,30.07
2022-09-04T11:17:20.623Z,29.20
2022-09-04T11:20:27.382Z,28.77
2022-09-04T11:23:32.765Z,28.54
2022-09-04T11:26:29.937Z,27.51
2022-09-04T11:29:12.783Z,27.75
2022-09-04T11:32:12.895Z,27.58
2022-09-04T11:35:22.235Z,26.52
2022-09-04T11:38:25.233Z,26.77
2022-09-04T11:41:31.348Z,26.53
2022-09-04T11:44:02.878Z,26.93
2022-09-04T11:46:37.161Z,26.91
2022-09-04T11:49:16.332Z,26.76
2022-09-04T11:52:14.820Z,27.26
2022-09-04T11:55:07.495Z,27.52
2022-09-04T11:58:03.773Z,27.60
2022-09-04T12:01:16.300Z,27.72
2022-09-04T12:03:49.532Z,27.86
2022-09-04T12:06:39.618Z,28.43
2022-09-04T12:09:36.079Z,29.10
2022-09-04T12:12:58.224Z,29.10
2022-09-04T12:15:35.751Z,29.41
2022-09-04T12:18:33.510Z,29.55
2022-09-04T12:21:08.932Z,29.72
2022-09-04T12:24:07.477Z,30.32
2022-09-04T12:27:03.611Z,31.23
2022-09-04T12:30:03.867Z,31.53
2022-09-04T12:32:38.223Z,31.30
2022-09-04T12:35:32.075Z,31.44
2022-09-04T12:38:09.913Z,30.90
2022-09-04T12:41:13.501Z,30.82
2022-09-04T12:43:52.752Z,30.72
2022-09-04T12:47:00.563Z,30.27
2022-09-04T12:49:49.028Z,30.08
2022-09-04T12:52:42.174Z,30.64
2022-09-04T12:55:23.179Z,30.57
2022-09-04T12:58:33.870Z,30.10
2022-09-04T13:01:19.215Z,30.29
2022-09-04T13:04:01.191Z,30.32
2022-09-04T13:06:55.686Z,29.99
2022-09-04T13:09:45.788Z,30.35
2022-09-04T13:12:56.107Z,30.24
2022-09-04T13:15:28.636Z,30.53
2022-09-04T13:18:22.264Z,30.50
2022-09-04T13:20:58.711Z,30.52
2022-09-04T13:24:10.918Z,30.37
2022-09-04T13:27:00.615Z,30.38
2022-09-04T13:30:05.642Z,31.15
2022-09-04T13:32:55.191Z,31.00
2022-09-04T13:35:42.940Z,30.89
2022-09-04T13:38:43.221Z,30.39
2022-09-04T13:41:38.839Z,30.99
2022-09-04T13:44:28.404Z,31.12
2022-09-04T13:47:06.583Z,31.20
2022-09-04T13:49:51.284Z,31.46
2022-09-04T13:52:34.131Z,31.56
2022-09-04T13:55:26.387Z,32.23
2022-09-04T13:58:10.976Z,32.15
2022-09-04T14:00:49.296Z,32.87
2022-09-04T14:03:36.492Z,33.12
2022-09-04T14:06:11.662Z,32.44
2022-09-04T14:08:46.311Z,32.80
2022-09-04T14:12:04.098Z,31.87
2022-09-04T14:14:51.396Z,32.56
2022-09-04T14:17:31.033Z,32.41
2022-09-04T14:20:24.900Z,32.12
2022-09-04T14:23:35.327Z,32.90
2022-09-04T14:26:12.980Z,33.29
2022-09-04T14:29:04.144Z,33.65
2022-09-04T14:31:52.364Z,33.66
2022-09-04T14:35:10.366Z,33.58
2022-09-04T14:38:05.465Z,34.08
2022-09-04T14:40:42.341Z,34.03
2022-09-04T14:43:28.495Z,33.76
2022-09-04T14:46:38.957Z,34.17
2022-09-04T14:49:17.171Z,34.24
2022-09-04T14:51:56.649Z,33.92
2022-09-04T14:54:53.045Z,33.57
2022-09-04T14:57:39.450Z,34.03
2022-09-04T15:00:20.835Z,33.94
2022-09-04T15:03:12.111Z,34.18
2022-09-04T15:05:56.776Z,33.84
2022-09-04T15:08:40.583Z,32.89
2022-09-04T15:11:31.657Z,33.11
2022-09-04T15:14:09.318Z,33.43
2022-09-04T15:16:49.696Z,33.27
2022-09-04T15:19:52.656Z,34.42
2022-09-04T15:22:57.600Z,35.01
2022-09-04T15:26:02.075Z,35.57
2022-09-04T15:28:39.799Z,36.01
2022-09-04T15:31:17.067Z,35.98
2022-09-04T15:33:49.155Z,36.01
2022-09-04T15:36:24.581Z,36.01
2022-09-04T15:38:59.098Z,36.34
2022-09-04T15:41:44.804Z,36.48
2022-09-04T15:44:33.115Z,36.43
2022-09-04T15:47:04.658Z,36.47
2022-09-04T15:49:41.942Z,37.01
2022-09-04T15:52:28.736Z,37.39
2022-09-04T15:55:28.365Z,37.92
2022-09-04T15:58:30.177Z,39.30
2022-09-04T16:01:12.088Z,39.43
2022-09-04T16:04:15.570Z,39.07
2022-09-04T16:06:57.759Z,39.34
2022-09-04T16:09:50.123Z,40.06
2022-09-04T16:12:30.800Z,40.35
2022-09-04T16:15:10.834Z,40.28
2022-09-04T16:17:47.105Z,40.52
2022-09-04T16:20:25.638Z,40.52
2022-09-04T16:23:07.546Z,40.83
2022-09-04T16:25:43.096Z,40.88
2022-09-04T16:28:25.552Z,40.90
2022-09-04T16:31:01.938Z,41.73
2022-09-04T16:33:40.753Z,41.39
2022-09-04T16:36:25.093Z,41.56
2022-09-04T16:39:13.393Z,41.32
2022-09-04T16:41:54.653Z,41.15
2022-09-04T16:44:38.549Z,41.60
2022-09-04T16:47:48.921Z,41.65
2022-09-04T16:50:23.561Z,41.89
2022-09-04T16:53:13.361Z,41.64
2022-09-04T16:56:00.882Z,42.28
2022-09-04T16:58:50.098Z,41.99
2022-09-04T17:01:57.237Z,42.09
2022-09-04T17:04:44.215Z,42.09
2022-09-04T17:07:23.304Z,42.71
2022-09-04T17:09:58.706Z,42.82
2022-09-04T17:13:01.333Z,43.07
2022-09-04T17:15:58.818Z,43.41
2022-09-04T17:18:31.729Z,42.90
2022-09-04T17:26:29.855Z,43.32
2022-09-04T17:29:01.072Z,43.17
2022-09-04T17:29:14.171Z,43.33
2022-09-04T17:31:15.615Z,43.17
2022-09-04T17:38:49.250Z,43.11
2022-09-04T17:40:40.195Z,43.28
2022-09-04T17:41:40.707Z,42.96
2022-09-04T17:44:03.332Z,43.47
2022-09-04T17:46:59.427Z,43.66
2022-09-04T17:49:34.723Z,44.17
2022-09-04T17:52:11.051Z,43.82
2022-09-04T17:54:48.849Z,44.32
2022-09-04T17:57:26.077Z,44.84
2022-09-04T18:00:06.884Z,44.70
2022-09-04T18:02:49.768Z,45.29
2022-09-04T18:05:33.647Z,45.83
2022-09-04T18:08:20.311Z,46.36
2022-09-04T18:11:01.073Z,46.27
2022-09-04T18:14:02.162Z,46.44
2022-09-04T18:16:38.483Z,46.53
2022-09-04T18:19:25.497Z,46.88
2022-09-04T18:22:31.956Z,47.01
2022-09-04T18:25:16.318Z,47.39
2022-09-04T18:28:22.091Z,47.85
2022-09-04T18:37:06.060Z,48.13
2022-09-04T18:37:19.638Z,48.40
2022-09-04T18:37:44.301Z,47.97
2022-09-04T18:40:39.187Z,48.14
2022-09-04T18:50:29.023Z,47.81
2022-09-04T18:50:34.959Z,49.78
2022-09-04T18:50:40.369Z,49.87
2022-09-04T18:56:20.443Z,49.53
2022-09-04T18:58:57.922Z,49.53
2022-09-04T19:01:38.438Z,49.50
2022-09-04T19:04:19.312Z,49.85
2022-09-04T19:07:07.150Z,49.80
2022-09-04T19:09:55.795Z,50.57
2022-09-04T19:12:52.185Z,50.63
2022-09-04T19:15:36.902Z,49.77
2022-09-04T19:18:45.998Z,50.07
2022-09-04T19:21:20.952Z,50.21
2022-09-04T19:24:22.538Z,50.42
2022-09-04T19:26:54.341Z,50.56
2022-09-04T19:29:31.792Z,50.70
2022-09-04T19:32:14.483Z,51.35
2022-09-04T19:34:55.182Z,51.81
2022-09-04T19:39:41.419Z,52.18
2022-09-04T19:46:05.197Z,51.83
2022-09-04T19:46:15.954Z,52.30
2022-09-04T19:47:28.911Z,52.45
2022-09-04T19:53:17.966Z,52.51
2022-09-04T19:53:42.158Z,52.89
2022-09-04T19:57:32.337Z,53.14
2022-09-04T19:59:44.908Z,53.27
2022-09-04T20:02:21.028Z,53.58
2022-09-04T20:04:58.969Z,54.07
2022-09-04T20:07:48.638Z,54.10
2022-09-04T20:10:32.080Z,54.38
2022-09-04T20:13:28.706Z,54.10
2022-09-04T20:16:25.184Z,54.56
2022-09-04T20:19:16.844Z,54.85
2022-09-04T20:22:25.753Z,54.49
2022-09-04T20:25:06.685Z,54.73
2022-09-04T20:27:46.071Z,54.87
2022-09-04T20:30:21.256Z,54.84
2022-09-04T20:33:12.025Z,54.86
2022-09-04T20:36:09.348Z,55.15
2022-09-04T20:39:05.740Z,55.21
2022-09-04T20:41:43.583Z,55.71
2022-09-04T20:44:45.862Z,56.01
2022-09-04T20:52:44.830Z,56.20
2022-09-04T20:52:54.193Z,55.94
2022-09-04T20:53:42.757Z,55.77
2022-09-04T20:58:35.038Z,56.92
2022-09-04T21:03:13.781Z,56.54
2022-09-04T21:03:15.216Z,56.76
2022-09-04T21:06:07.296Z,56.74
2022-09-04T21:08:52.193Z,56.73
2022-09-04T21:11:39.620Z,56.79
2022-09-04T21:14:39.789Z,57.31
2022-09-04T21:17:33.799Z,57.52
2022-09-04T21:20:06.821Z,57.91
2022-09-04T21:22:59.598Z,57.69
2022-09-04T21:25:44.354Z,57.76
2022-09-04T21:28:26.003Z,57.63
2022-09-04T21:31:44.134Z,57.36
2022-09-04T21:34:31.174Z,57.57
2022-09-04T21:37:11.684Z,58.06
2022-09-04T21:40:49.652Z,57.74
2022-09-04T21:43:50.086Z,57.74
2022-09-04T21:46:57.779Z,57.67
2022-09-04T21:49:47.974Z,57.38
2022-09-04T21:52:53.440Z,57.94
2022-09-04T21:58:26.445Z,57.85
2022-09-04T22:02:39.898Z,57.42
2022-09-04T22:02:40.984Z,57.58
2022-09-04T22:05:18.429Z,57.53
2022-09-04T22:13:26.608Z,57.44
2022-09-04T22:13:30.995Z,56.96
2022-09-04T22:14:50.000Z,57.39
2022-09-04T22:17:22.456Z,58.25
2022-09-04T22:20:19.568Z,58.24
2022-09-04T22:23:20.214Z,58.04
2022-09-04T22:26:23.550Z,58.74
2022-09-04T22:29:26.606Z,59.01
2022-09-04T22:32:29.936Z,59.32
2022-09-04T22:35:27.795Z,59.20
2022-09-04T22:38:28.685Z,59.94
2022-09-04T22:41:37.977Z,59.92
2022-09-04T22:44:36.752Z,60.24
2022-09-04T22:47:29.949Z,60.41
2022-09-04T22:50:37.347Z,60.31
2022-09-04T22:53:48.938Z,60.08
2022-09-04T22:56:34.322Z,59.97
2022-09-04T22:59:27.782Z,60.16
2022-09-04T23:02:13.611Z,59.67
2022-09-04T23:05:00.837Z,60.37
2022-09-04T23:13:44.859Z,60.55
2022-09-04T23:13:50.737Z,60.49
2022-09-04T23:14:53.888Z,61.16
2022-09-04T23:19:43.943Z,61.39
2022-09-04T23:26:32.532Z,61.25
2022-09-04T23:26:42.064Z,62.11
2022-09-04T23:27:46.250Z,61.99
2022-09-04T23:30:25.228Z,62.12
2022-09-04T23:33:27.678Z,62.34
2022-09-04T23:36:33.834Z,63.14
2022-09-04T23:39:27.797Z,62.88
2022-09-04T23:42:39.717Z,63.23
2022-09-04T23:45:48.795Z,63.39
2022-09-04T23:48:58.096Z,64.10
2022-09-04T23:52:04.922Z,64.89
2022-09-04T23:55:05.556Z,65.04
2022-09-04T23:58:34.067Z,65.04
